Terminal Aerodrome Forecast
Issued by NWS

Home | Current Version | Previous Version | Text Only | Print | Product List | Glossary Off
Versions: 1 2 3 4 5 6 7 8 9 10 11 12 13 14 15 16 17 18 19 20 21 22 23 24

000
FTUS43 KGRB 260520
TAFATW
TAF
KATW 260520Z 2606/2706 21007KT 6SM BR VCSH SCT050 SCT100
      WS015/24040KT
     FM261000 20005KT 5SM BR SCT008 BKN200
      TEMPO 2610/2613 2SM BR BKN008
     FM261300 20009KT P6SM SCT040 BKN120
     FM261700 17012KT P6SM -SHRA BKN035 BKN070
     FM262200 13010KT 6SM -SHRA BKN020 OVC035
     FM270400 23009KT 5SM BR VCSH BKN009 OVC030=

USA.gov is the U.S. government's official web portal to all federal, state and local government web resources and services.